createdAt,value
2019-05-30T00:01:49.313Z,3.72
2019-05-30T00:04:18.228Z,3.42
2019-05-30T00:06:47.168Z,3.00
2019-05-30T00:09:15.996Z,3.30
2019-05-30T00:11:44.823Z,3.00
2019-05-30T00:14:13.764Z,2.60
2019-05-30T00:16:42.722Z,3.17
2019-05-30T00:19:11.705Z,3.10
2019-05-30T00:21:40.868Z,2.85
2019-05-30T00:24:09.780Z,2.97
2019-05-30T00:26:38.665Z,2.90
2019-05-30T00:29:07.488Z,4.10
2019-05-30T00:31:36.302Z,3.40
2019-05-30T00:34:05.966Z,3.72
2019-05-30T00:36:34.869Z,3.00
2019-05-30T00:39:06.428Z,3.60
2019-05-30T00:41:35.594Z,3.30
2019-05-30T00:44:04.759Z,3.30
2019-05-30T00:46:33.748Z,3.30
2019-05-30T00:49:02.690Z,3.22
2019-05-30T00:51:31.903Z,3.70
2019-05-30T00:54:00.773Z,6.22
2019-05-30T00:56:29.646Z,3.72
2019-05-30T00:58:58.683Z,3.70
2019-05-30T01:01:27.739Z,3.02
2019-05-30T01:03:56.779Z,3.60
2019-05-30T01:06:25.725Z,3.42
2019-05-30T01:08:54.551Z,3.27
2019-05-30T01:11:23.350Z,3.00
2019-05-30T01:13:52.167Z,3.02
2019-05-30T01:16:21.124Z,2.87
2019-05-30T01:18:59.591Z,3.10
2019-05-30T01:21:31.759Z,2.90
2019-05-30T01:24:01.293Z,3.50
2019-05-30T01:26:30.543Z,3.50
2019-05-30T01:29:05.714Z,3.90
2019-05-30T01:31:34.705Z,3.30
2019-05-30T01:34:03.885Z,3.50
2019-05-30T01:36:46.317Z,3.67
2019-05-30T01:39:15.144Z,3.65
2019-05-30T01:41:44.273Z,3.30
2019-05-30T01:44:13.172Z,3.10
2019-05-30T01:46:41.989Z,3.40
2019-05-30T01:49:10.884Z,3.12
2019-05-30T01:51:40.105Z,3.70
2019-05-30T01:54:08.980Z,3.02
2019-05-30T01:56:37.887Z,4.00
2019-05-30T01:59:06.897Z,3.90
2019-05-30T02:01:37.560Z,3.30
2019-05-30T02:04:07.337Z,3.50
2019-05-30T02:06:38.171Z,3.30
2019-05-30T02:09:09.463Z,3.15
2019-05-30T02:11:41.744Z,3.60
2019-05-30T02:14:10.617Z,3.90
2019-05-30T02:16:39.570Z,3.55
2019-05-30T02:19:10.992Z,3.10
2019-05-30T02:21:39.942Z,4.00
2019-05-30T02:24:11.666Z,3.87
2019-05-30T02:26:39.776Z,4.30
2019-05-30T02:29:08.604Z,3.60
2019-05-30T02:31:39.281Z,3.67
2019-05-30T02:34:09.734Z,3.58
2019-05-30T02:36:38.614Z,4.15
2019-05-30T02:39:09.988Z,4.15
2019-05-30T02:41:38.844Z,3.52
2019-05-30T02:44:09.703Z,5.17
2019-05-30T02:46:38.429Z,3.47
2019-05-30T02:49:09.612Z,4.20
2019-05-30T02:51:37.939Z,4.25
2019-05-30T02:54:08.757Z,5.03
2019-05-30T02:56:38.847Z,3.70
2019-05-30T02:59:09.190Z,3.70
2019-05-30T03:01:55.998Z,3.15
2019-05-30T03:04:10.954Z,4.12
2019-05-30T03:06:40.220Z,4.00
2019-05-30T03:09:11.483Z,4.58
2019-05-30T03:11:40.521Z,4.47
2019-05-30T03:14:16.713Z,4.47
2019-05-30T03:16:40.250Z,3.55
2019-05-30T03:19:11.100Z,4.12
2019-05-30T03:21:39.823Z,3.92
2019-05-30T03:24:11.262Z,3.70
2019-05-30T03:26:39.376Z,4.47
2019-05-30T03:29:10.027Z,3.45
2019-05-30T03:31:41.296Z,3.80
2019-05-30T03:34:22.913Z,4.87
2019-05-30T03:36:41.004Z,4.50
2019-05-30T03:39:12.447Z,4.00
2019-05-30T03:41:41.249Z,3.30
2019-05-30T03:44:11.486Z,3.70
2019-05-30T03:46:43.835Z,3.77
2019-05-30T03:49:16.263Z,3.72
2019-05-30T03:51:47.682Z,4.20
2019-05-30T03:54:17.294Z,3.40
2019-05-30T03:56:49.963Z,4.10
2019-05-30T03:59:47.248Z,3.52
2019-05-30T04:02:56.335Z,3.70
2019-05-30T04:05:16.094Z,3.77
2019-05-30T04:07:49.868Z,4.10
2019-05-30T04:10:21.969Z,3.77
2019-05-30T04:13:14.494Z,3.83
2019-05-30T04:15:43.275Z,3.55
2019-05-30T04:18:14.159Z,3.50
2019-05-30T04:20:43.163Z,3.90
2019-05-30T04:23:12.608Z,3.77
2019-05-30T04:25:42.018Z,3.77
2019-05-30T04:28:12.047Z,3.35
2019-05-30T04:30:41.158Z,3.67
2019-05-30T04:33:19.277Z,3.65
2019-05-30T04:35:40.515Z,3.60
2019-05-30T04:38:10.465Z,3.40
2019-05-30T04:40:39.670Z,3.40
2019-05-30T04:43:09.137Z,3.58
2019-05-30T04:45:38.247Z,3.27
2019-05-30T04:48:07.168Z,3.70
2019-05-30T04:50:36.090Z,4.03
2019-05-30T04:53:04.968Z,3.50
2019-05-30T04:55:33.798Z,3.20
2019-05-30T04:58:02.673Z,3.52
2019-05-30T05:00:31.730Z,3.12
2019-05-30T05:03:00.573Z,3.37
2019-05-30T05:05:29.729Z,3.65
2019-05-30T05:07:58.552Z,3.50
2019-05-30T05:10:27.599Z,3.75
2019-05-30T05:12:56.677Z,3.98
2019-05-30T05:15:25.516Z,3.98
2019-05-30T05:17:54.455Z,3.30
2019-05-30T05:20:23.567Z,3.55
2019-05-30T05:22:53.265Z,3.27
2019-05-30T05:25:22.200Z,3.45
2019-05-30T05:27:51.081Z,3.60
2019-05-30T05:30:20.616Z,3.10
2019-05-30T05:32:49.496Z,4.05
2019-05-30T05:35:18.756Z,3.20
2019-05-30T05:37:47.636Z,3.40
2019-05-30T05:40:16.489Z,3.50
2019-05-30T05:42:45.414Z,3.60
2019-05-30T05:45:14.764Z,3.40
2019-05-30T05:47:43.584Z,2.90
2019-05-30T05:50:12.949Z,3.10
2019-05-30T05:52:41.776Z,2.90
2019-05-30T05:55:12.616Z,2.80
2019-05-30T05:57:41.651Z,3.35
2019-05-30T06:00:10.814Z,3.47
2019-05-30T06:02:39.787Z,3.10
2019-05-30T06:05:08.908Z,3.20
2019-05-30T06:07:37.753Z,3.08
2019-05-30T06:10:07.010Z,2.52
2019-05-30T06:12:36.153Z,2.97
2019-05-30T06:15:05.358Z,2.67
2019-05-30T06:17:34.277Z,2.77
2019-05-30T06:20:03.328Z,2.80
2019-05-30T06:22:32.143Z,2.77
2019-05-30T06:25:01.008Z,3.40
2019-05-30T06:27:29.921Z,2.95
2019-05-30T06:29:58.734Z,3.07
2019-05-30T06:32:28.884Z,2.90
2019-05-30T06:34:58.024Z,3.20
2019-05-30T06:37:27.279Z,3.40
2019-05-30T06:39:56.305Z,3.40
2019-05-30T06:42:25.792Z,2.70
2019-05-30T06:44:54.780Z,3.52
2019-05-30T06:47:24.390Z,3.50
2019-05-30T06:49:53.450Z,2.85
2019-05-30T06:52:22.875Z,2.50
2019-05-30T06:54:52.007Z,2.60
2019-05-30T06:57:21.179Z,3.12
2019-05-30T06:59:50.343Z,3.00
2019-05-30T07:02:19.250Z,2.25
2019-05-30T07:04:52.068Z,2.40
2019-05-30T07:07:19.536Z,2.60
2019-05-30T07:09:48.510Z,2.70
2019-05-30T07:12:17.492Z,2.50
2019-05-30T07:14:46.420Z,2.10
2019-05-30T07:17:15.378Z,2.12
2019-05-30T07:19:44.286Z,2.50
2019-05-30T07:22:13.267Z,2.60
2019-05-30T07:24:42.304Z,2.20
2019-05-30T07:27:11.291Z,2.30
2019-05-30T07:29:40.059Z,1.80
2019-05-30T07:32:13.036Z,2.20
2019-05-30T07:34:40.065Z,2.35
2019-05-30T07:37:08.872Z,2.30
2019-05-30T07:39:37.839Z,2.60
2019-05-30T07:42:06.961Z,2.22
2019-05-30T07:44:36.079Z,2.08
2019-05-30T07:47:05.182Z,2.58
2019-05-30T07:49:34.634Z,2.10
2019-05-30T07:52:03.717Z,2.30
2019-05-30T07:54:33.066Z,2.47
2019-05-30T07:57:02.428Z,2.20
2019-05-30T07:59:32.371Z,2.52
2019-05-30T08:02:01.491Z,2.30
2019-05-30T08:04:32.857Z,2.47
2019-05-30T08:07:03.720Z,2.50
2019-05-30T08:09:33.116Z,1.95
2019-05-30T08:12:04.919Z,1.77
2019-05-30T08:14:35.313Z,1.90
2019-05-30T08:17:05.318Z,2.20
2019-05-30T08:19:35.910Z,2.00
2019-05-30T08:22:05.985Z,1.87
2019-05-30T08:24:36.710Z,2.17
2019-05-30T08:27:05.793Z,2.13
2019-05-30T08:29:34.741Z,1.90
2019-05-30T08:32:03.616Z,1.80
2019-05-30T08:34:32.504Z,1.60
2019-05-30T08:37:01.379Z,1.55
2019-05-30T08:39:30.913Z,1.60
2019-05-30T08:41:59.951Z,1.40
2019-05-30T08:44:29.427Z,1.60
2019-05-30T08:46:58.696Z,1.80
2019-05-30T08:49:27.587Z,1.40
2019-05-30T08:51:56.482Z,1.40
2019-05-30T08:54:25.330Z,1.50
2019-05-30T08:56:54.320Z,1.40
2019-05-30T08:59:23.222Z,1.50
2019-05-30T09:01:53.303Z,1.30
2019-05-30T09:04:22.390Z,1.10
2019-05-30T09:06:51.344Z,1.40
2019-05-30T09:09:20.280Z,1.70
2019-05-30T09:11:49.323Z,1.20
2019-05-30T09:14:18.354Z,1.20
2019-05-30T09:16:48.264Z,1.80
2019-05-30T09:19:18.239Z,1.30
2019-05-30T09:21:47.565Z,1.47
2019-05-30T09:24:16.658Z,1.27
2019-05-30T09:26:48.742Z,1.20
2019-05-30T09:29:16.295Z,1.42
2019-05-30T09:31:45.091Z,1.50
2019-05-30T09:34:14.049Z,1.50
2019-05-30T09:36:42.935Z,1.47
2019-05-30T09:39:13.262Z,1.50
2019-05-30T09:41:42.323Z,1.37
2019-05-30T09:44:12.633Z,0.93
2019-05-30T09:46:42.531Z,1.30
2019-05-30T09:49:11.657Z,1.30
2019-05-30T09:51:41.927Z,1.42
2019-05-30T09:54:11.165Z,1.30
